createdAt,value
2019-05-04T00:00:22.758Z,6.65
2019-05-04T00:02:49.513Z,7.60
2019-05-04T00:05:25.091Z,8.60
2019-05-04T00:07:51.834Z,8.93
2019-05-04T00:10:18.549Z,8.77
2019-05-04T00:12:45.469Z,7.50
2019-05-04T00:15:12.002Z,6.80
2019-05-04T00:17:38.734Z,8.55
2019-05-04T00:20:05.522Z,8.10
2019-05-04T00:22:32.197Z,7.77
2019-05-04T00:24:59.804Z,8.60
2019-05-04T00:27:26.595Z,7.03
2019-05-04T00:29:54.950Z,8.43
2019-05-04T00:32:25.701Z,7.70
2019-05-04T00:35:00.586Z,7.10
2019-05-04T00:37:27.338Z,7.60
2019-05-04T00:39:54.883Z,7.50
2019-05-04T00:42:20.823Z,9.60
2019-05-04T00:44:47.570Z,9.20
2019-05-04T00:47:15.183Z,9.33
2019-05-04T00:49:41.026Z,8.27
2019-05-04T00:52:07.738Z,9.10
2019-05-04T00:54:35.342Z,9.07
2019-05-04T00:57:02.185Z,9.40
2019-05-04T00:59:28.925Z,9.00
2019-05-04T01:02:07.109Z,8.40
2019-05-04T01:04:35.368Z,8.70
2019-05-04T01:07:00.589Z,9.20
2019-05-04T01:09:27.375Z,9.10
2019-05-04T01:11:55.221Z,8.80
2019-05-04T01:14:20.822Z,7.30
2019-05-04T01:16:47.546Z,7.80
2019-05-04T01:19:14.695Z,7.07
2019-05-04T01:21:41.086Z,8.20
2019-05-04T01:24:07.836Z,7.47
2019-05-04T01:26:34.765Z,7.20
2019-05-04T01:29:01.286Z,6.70
2019-05-04T01:31:28.010Z,7.00
2019-05-04T01:34:01.729Z,6.80
2019-05-04T01:36:28.487Z,5.70
2019-05-04T01:39:06.566Z,6.70
2019-05-04T01:41:35.340Z,5.90
2019-05-04T01:44:04.801Z,6.20
2019-05-04T01:46:29.229Z,6.10
2019-05-04T01:48:56.033Z,5.93
2019-05-04T01:51:24.987Z,5.57
2019-05-04T01:53:49.422Z,5.70
2019-05-04T01:56:21.439Z,6.30
2019-05-04T01:58:54.890Z,6.73
2019-05-04T02:01:20.133Z,6.57
2019-05-04T02:03:46.869Z,6.07
2019-05-04T02:06:15.369Z,6.30
2019-05-04T02:08:54.684Z,7.20
2019-05-04T02:11:20.546Z,5.90
2019-05-04T02:13:47.281Z,7.03
2019-05-04T02:16:14.791Z,5.90
2019-05-04T02:18:40.750Z,6.57
2019-05-04T02:21:07.501Z,5.80
2019-05-04T02:23:35.198Z,7.47
2019-05-04T02:26:07.614Z,7.15
2019-05-04T02:28:47.734Z,7.20
2019-05-04T02:31:16.450Z,7.03
2019-05-04T02:33:41.207Z,7.75
2019-05-04T02:36:07.955Z,7.07
2019-05-04T02:38:36.069Z,7.87
2019-05-04T02:41:30.041Z,7.13
2019-05-04T02:43:56.749Z,7.13
2019-05-04T02:46:25.328Z,7.47
2019-05-04T02:48:50.214Z,6.43
2019-05-04T02:51:16.951Z,8.48
2019-05-04T02:53:46.282Z,7.70
2019-05-04T02:56:10.426Z,8.20
2019-05-04T02:58:38.240Z,7.17
2019-05-04T03:01:04.954Z,8.58
2019-05-04T03:03:30.701Z,7.97
2019-05-04T03:05:57.460Z,8.53
2019-05-04T03:08:29.796Z,7.90
2019-05-04T03:10:50.970Z,7.40
2019-05-04T03:13:17.690Z,8.03
2019-05-04T03:15:46.101Z,8.90
2019-05-04T03:18:16.362Z,8.70
2019-05-04T03:21:05.765Z,8.03
2019-05-04T03:23:30.434Z,9.13
2019-05-04T03:25:57.183Z,8.97
2019-05-04T03:28:25.418Z,8.90
2019-05-04T03:30:50.679Z,10.00
2019-05-04T03:33:19.554Z,9.57
2019-05-04T03:35:58.556Z,9.37
2019-05-04T03:38:11.022Z,10.03
2019-05-04T03:40:37.755Z,10.47
2019-05-04T03:43:09.204Z,8.83
2019-05-04T03:45:37.134Z,9.53
2019-05-04T03:48:06.019Z,10.23
2019-05-04T03:50:35.797Z,10.27
2019-05-04T03:53:05.002Z,9.97
2019-05-04T03:55:28.775Z,9.30
2019-05-04T03:57:56.076Z,11.18
2019-05-04T04:00:25.501Z,10.47
2019-05-04T04:02:49.719Z,9.93
2019-05-04T04:05:17.016Z,10.57
2019-05-04T04:07:46.069Z,9.10
2019-05-04T04:10:10.042Z,9.60
2019-05-04T04:12:36.800Z,9.03
2019-05-04T04:15:05.435Z,9.13
2019-05-04T04:17:38.925Z,10.47
2019-05-04T04:20:05.931Z,10.20
2019-05-04T04:22:32.586Z,10.03
2019-05-04T04:24:59.310Z,9.53
2019-05-04T04:27:30.374Z,9.60
2019-05-04T04:29:57.214Z,9.87
2019-05-04T04:32:25.689Z,9.90
2019-05-04T04:34:50.691Z,10.80
2019-05-04T04:37:17.482Z,11.00
2019-05-04T04:39:46.369Z,10.20
2019-05-04T04:42:10.955Z,9.50
2019-05-04T04:44:37.691Z,11.90
2019-05-04T04:47:06.316Z,12.63
2019-05-04T04:49:31.143Z,11.23
2019-05-04T04:51:57.891Z,10.10
2019-05-04T04:54:26.025Z,10.80
2019-05-04T04:56:55.397Z,10.77
2019-05-04T04:59:28.941Z,10.30
2019-05-04T05:01:55.702Z,10.50
2019-05-04T05:04:22.426Z,10.70
2019-05-04T05:06:49.606Z,10.77
2019-05-04T05:09:16.490Z,11.30
2019-05-04T05:11:45.389Z,10.70
2019-05-04T05:14:10.024Z,9.40
2019-05-04T05:16:36.778Z,8.80
2019-05-04T05:19:04.647Z,11.07
2019-05-04T05:21:30.255Z,10.40
2019-05-04T05:23:57.030Z,11.85
2019-05-04T05:26:24.632Z,11.00
2019-05-04T05:28:50.545Z,11.33
2019-05-04T05:31:29.905Z,11.77
2019-05-04T05:34:16.258Z,11.63
2019-05-04T05:36:43.038Z,12.00
2019-05-04T05:39:09.775Z,11.73
2019-05-04T05:41:36.495Z,11.73
2019-05-04T05:44:05.131Z,11.47
2019-05-04T05:46:37.792Z,11.07
2019-05-04T05:49:09.547Z,11.73
2019-05-04T05:51:39.272Z,11.37
2019-05-04T05:54:18.174Z,14.05
2019-05-04T05:56:50.183Z,13.38
2019-05-04T05:59:28.089Z,12.20
2019-05-04T06:02:00.451Z,11.43
2019-05-04T06:04:38.262Z,10.90
2019-05-04T06:07:09.450Z,11.70
2019-05-04T06:09:36.186Z,10.93
2019-05-04T06:12:06.289Z,13.00
2019-05-04T06:14:41.501Z,12.50
2019-05-04T06:17:18.454Z,13.53
2019-05-04T06:19:55.641Z,12.47
2019-05-04T06:22:34.499Z,12.17
2019-05-04T06:25:10.261Z,11.87
2019-05-04T06:27:47.149Z,12.00
2019-05-04T06:30:24.307Z,13.27
2019-05-04T06:32:46.621Z,14.35
2019-05-04T06:35:19.166Z,13.07
2019-05-04T06:37:52.390Z,12.40
2019-05-04T06:40:35.707Z,12.47
2019-05-04T06:42:58.366Z,12.80
2019-05-04T06:45:27.654Z,11.63
2019-05-04T06:47:55.743Z,14.53
2019-05-04T06:50:26.073Z,14.73
2019-05-04T06:53:11.224Z,15.00
2019-05-04T06:55:40.672Z,14.43
2019-05-04T06:58:15.204Z,14.60
2019-05-04T07:00:44.725Z,10.95
2019-05-04T07:03:15.470Z,0.90
2019-05-04T07:05:37.694Z,0.80
2019-05-04T07:08:08.851Z,0.50
2019-05-04T07:10:43.045Z,0.60
2019-05-04T07:13:07.986Z,0.60
2019-05-04T07:15:24.731Z,0.60
2019-05-04T07:17:54.560Z,0.60
2019-05-04T07:20:18.531Z,0.50
2019-05-04T07:22:45.097Z,0.50
2019-05-04T07:25:14.823Z,0.50
2019-05-04T07:27:39.086Z,0.53
2019-05-04T07:30:06.110Z,0.60
2019-05-04T07:32:36.896Z,0.53
2019-05-04T07:34:59.589Z,0.50
2019-05-04T07:37:45.754Z,0.60
2019-05-04T07:40:10.341Z,0.60
2019-05-04T07:42:37.985Z,0.70
2019-05-04T07:45:05.778Z,0.90
2019-05-04T07:47:34.085Z,0.60
2019-05-04T07:49:59.262Z,0.60
2019-05-04T07:52:28.119Z,0.63
2019-05-04T07:54:52.805Z,0.60
2019-05-04T07:57:24.038Z,0.70
2019-05-04T07:59:46.286Z,0.70
2019-05-04T08:02:16.171Z,0.70
2019-05-04T08:04:47.163Z,0.60
2019-05-04T08:07:10.768Z,0.63
2019-05-04T08:09:40.225Z,0.90
2019-05-04T08:12:14.679Z,0.70
2019-05-04T08:14:44.955Z,0.70
2019-05-04T08:17:06.220Z,0.63
2019-05-04T08:19:36.249Z,0.60
2019-05-04T08:21:59.785Z,0.60
2019-05-04T08:24:31.002Z,0.60
2019-05-04T08:26:55.559Z,0.80
2019-05-04T08:29:23.508Z,0.70
2019-05-04T08:31:46.724Z,0.60
2019-05-04T08:34:14.221Z,0.70
2019-05-04T08:36:46.478Z,0.60
2019-05-04T08:39:07.014Z,0.70
2019-05-04T08:41:41.321Z,0.70
2019-05-04T08:44:11.314Z,1.00
2019-05-04T08:46:38.243Z,0.70
2019-05-04T08:48:58.441Z,0.90
2019-05-04T08:51:38.102Z,0.80
2019-05-04T08:53:59.460Z,0.80
2019-05-04T08:56:35.880Z,0.80
2019-05-04T08:59:09.231Z,0.70
2019-05-04T09:01:47.644Z,0.70
2019-05-04T09:04:22.022Z,0.73
2019-05-04T09:06:37.631Z,0.80
2019-05-04T09:09:07.197Z,0.80
2019-05-04T09:11:29.868Z,0.70
2019-05-04T09:13:54.770Z,0.80
2019-05-04T09:16:20.154Z,0.80
2019-05-04T09:18:46.874Z,0.70
2019-05-04T09:21:16.025Z,0.70
2019-05-04T09:23:40.362Z,0.70
2019-05-04T09:26:08.544Z,0.80
2019-05-04T09:28:34.373Z,1.20
2019-05-04T09:31:02.102Z,1.00
2019-05-04T09:33:32.677Z,0.93
2019-05-04T09:36:03.402Z,1.00
2019-05-04T09:38:23.759Z,0.97
2019-05-04T09:40:51.662Z,1.00
2019-05-04T09:43:18.842Z,0.90
2019-05-04T09:45:41.580Z,1.10
2019-05-04T09:48:10.125Z,1.50
2019-05-04T09:50:35.350Z,1.10
2019-05-04T09:53:15.294Z,1.30
2019-05-04T09:55:38.998Z,1.10
2019-05-04T09:58:04.994Z,1.33
2019-05-04T10:00:38.319Z,1.70
2019-05-04T10:02:57.710Z,1.27
2019-05-04T10:05:28.079Z,1.30
2019-05-04T10:07:51.183Z,1.47
2019-05-04T10:10:17.886Z,1.20
2019-05-04T10:12:51.853Z,1.50
2019-05-04T10:15:28.052Z,1.43
2019-05-04T10:17:57.770Z,1.33
2019-05-04T10:20:24.823Z,1.77
2019-05-04T10:22:51.255Z,1.10
2019-05-04T10:25:22.503Z,1.50
2019-05-04T10:27:51.837Z,1.33
2019-05-04T10:30:18.546Z,1.70
2019-05-04T10:32:45.282Z,1.67
2019-05-04T10:35:12.006Z,1.90
2019-05-04T10:37:38.742Z,1.57
2019-05-04T10:40:05.489Z,1.70
2019-05-04T10:42:32.235Z,2.13
2019-05-04T10:44:58.958Z,1.90
2019-05-04T10:47:25.690Z,1.50
2019-05-04T10:49:52.407Z,1.60
2019-05-04T10:52:19.156Z,1.67
2019-05-04T10:54:45.889Z,1.60
2019-05-04T10:57:12.678Z,1.60
2019-05-04T10:59:39.422Z,2.00
2019-05-04T11:02:06.196Z,1.83
2019-05-04T11:04:32.931Z,2.00
2019-05-04T11:06:59.731Z,2.07
2019-05-04T11:09:26.489Z,2.07
2019-05-04T11:11:54.498Z,2.10
2019-05-04T11:14:19.993Z,1.97
2019-05-04T11:16:46.763Z,2.23
2019-05-04T11:19:15.255Z,2.30
2019-05-04T11:21:40.274Z,2.03
2019-05-04T11:24:06.988Z,1.03
2019-05-04T11:26:39.750Z,1.53
2019-05-04T11:29:06.524Z,1.20
2019-05-04T11:31:34.919Z,1.30
2019-05-04T11:33:59.986Z,1.57
2019-05-04T11:36:26.718Z,1.40
2019-05-04T11:38:54.984Z,1.10
2019-05-04T11:41:20.217Z,1.37
2019-05-04T11:43:46.970Z,1.50
2019-05-04T11:46:14.417Z,1.73
2019-05-04T11:48:40.494Z,1.60
2019-05-04T11:51:07.237Z,1.80
2019-05-04T11:53:35.058Z,1.70
2019-05-04T11:56:00.714Z,1.70
2019-05-04T11:58:27.461Z,1.93
2019-05-04T12:00:54.392Z,1.80
2019-05-04T12:03:21.046Z,2.00
2019-05-04T12:05:52.341Z,1.33
2019-05-04T12:08:38.698Z,1.73
2019-05-04T12:11:05.542Z,2.10
2019-05-04T12:13:42.598Z,2.43
2019-05-04T12:15:59.030Z,2.07
2019-05-04T12:18:25.873Z,2.00
2019-05-04T12:20:54.347Z,2.30
2019-05-04T12:23:19.271Z,1.90
2019-05-04T12:25:46.030Z,1.80
2019-05-04T12:28:14.469Z,2.47
2019-05-04T12:30:39.491Z,2.10
2019-05-04T12:33:06.238Z,2.20
2019-05-04T12:35:34.700Z,2.00
2019-05-04T12:37:59.715Z,2.33
2019-05-04T12:40:26.452Z,2.37
2019-05-04T12:42:54.519Z,2.80
2019-05-04T12:45:20.035Z,2.07
2019-05-04T12:47:46.762Z,1.97
2019-05-04T12:50:14.549Z,2.03
2019-05-04T12:52:40.250Z,2.43
2019-05-04T12:55:06.998Z,2.20
2019-05-04T12:57:35.138Z,3.27
2019-05-04T13:00:00.527Z,2.20
2019-05-04T13:02:27.267Z,2.20
2019-05-04T13:04:55.332Z,2.20
2019-05-04T13:07:20.778Z,2.37
2019-05-04T13:09:47.531Z,2.30
2019-05-04T13:12:14.464Z,1.93
2019-05-04T13:14:41.041Z,2.10
2019-05-04T13:17:16.731Z,2.47
2019-05-04T13:19:45.250Z,3.00
2019-05-04T13:22:10.346Z,2.00
2019-05-04T13:24:37.094Z,1.90
2019-05-04T13:27:05.222Z,2.30
2019-05-04T13:29:30.610Z,2.90
2019-05-04T13:31:57.338Z,2.30
2019-05-04T13:34:25.165Z,2.03
2019-05-04T13:36:50.806Z,1.93
2019-05-04T13:39:17.734Z,3.10
2019-05-04T13:41:44.923Z,2.50
2019-05-04T13:44:11.236Z,2.47
2019-05-04T13:46:37.990Z,1.77
2019-05-04T13:49:04.836Z,1.87
2019-05-04T13:51:31.462Z,2.15
2019-05-04T13:54:00.730Z,2.60
2019-05-04T13:56:35.131Z,2.27
2019-05-04T13:59:06.435Z,2.13
2019-05-04T14:01:38.842Z,2.00
2019-05-04T14:04:28.139Z,2.27
2019-05-04T14:06:55.322Z,2.00
2019-05-04T14:09:21.649Z,2.17
2019-05-04T14:11:48.435Z,1.90
2019-05-04T14:14:15.286Z,1.90
2019-05-04T14:16:42.057Z,2.20
2019-05-04T14:19:08.836Z,1.73
2019-05-04T14:21:35.623Z,2.08
2019-05-04T14:24:04.582Z,2.03
2019-05-04T14:26:29.231Z,2.27
2019-05-04T14:28:56.035Z,2.37
2019-05-04T14:31:24.471Z,2.00
2019-05-04T14:33:49.670Z,1.83
2019-05-04T14:36:16.493Z,2.23
2019-05-04T14:38:45.408Z,2.30
2019-05-04T14:41:10.075Z,2.00
2019-05-04T14:43:38.265Z,2.40
2019-05-04T14:46:10.790Z,1.70
2019-05-04T14:48:40.150Z,2.43
2019-05-04T14:51:07.256Z,2.50
2019-05-04T14:53:35.160Z,2.57
2019-05-04T14:56:00.479Z,2.80
2019-05-04T14:58:27.249Z,2.53
2019-05-04T15:00:55.362Z,2.50
2019-05-04T15:03:20.840Z,2.27
2019-05-04T15:05:47.595Z,2.30
2019-05-04T15:08:14.965Z,2.87
2019-05-04T15:10:41.130Z,2.73
2019-05-04T15:13:07.874Z,2.62
2019-05-04T15:15:34.637Z,2.80
2019-05-04T15:18:01.431Z,3.17
2019-05-04T15:20:34.109Z,2.80
2019-05-04T15:22:59.771Z,2.60
2019-05-04T15:25:26.525Z,3.00
2019-05-04T15:27:55.137Z,3.00
2019-05-04T15:30:20.099Z,2.33
2019-05-04T15:32:46.828Z,3.40
2019-05-04T15:35:14.354Z,3.23
2019-05-04T15:37:40.516Z,3.10
2019-05-04T15:40:07.264Z,3.20
2019-05-04T15:42:35.631Z,3.70
2019-05-04T15:45:00.907Z,3.33
2019-05-04T15:47:27.771Z,3.47
2019-05-04T15:49:55.120Z,3.60
2019-05-04T15:52:30.559Z,3.20
2019-05-04T15:55:04.875Z,3.13
2019-05-04T15:57:36.248Z,3.27
2019-05-04T16:00:05.223Z,3.20
2019-05-04T16:02:32.000Z,3.33
2019-05-04T16:04:58.753Z,2.53
2019-05-04T16:07:25.530Z,2.60
2019-05-04T16:09:52.271Z,3.03
2019-05-04T16:12:19.047Z,2.80
2019-05-04T16:14:49.680Z,2.80
2019-05-04T16:17:14.285Z,3.03
2019-05-04T16:19:39.294Z,3.97
2019-05-04T16:22:07.343Z,3.60
2019-05-04T16:24:34.567Z,3.37
2019-05-04T16:26:59.623Z,2.83
2019-05-04T16:29:26.354Z,2.50
2019-05-04T16:31:54.459Z,3.07
2019-05-04T16:34:19.826Z,4.30
2019-05-04T16:36:46.578Z,2.93
2019-05-04T16:39:13.292Z,4.00
2019-05-04T16:41:40.033Z,3.30
2019-05-04T16:44:06.762Z,2.97
2019-05-04T16:46:33.503Z,3.50
2019-05-04T16:49:00.239Z,3.10
2019-05-04T16:51:32.172Z,3.00
2019-05-04T16:53:58.911Z,2.50
2019-05-04T16:56:25.637Z,2.80
2019-05-04T16:58:52.378Z,2.77
2019-05-04T17:01:26.750Z,2.80
2019-05-04T17:03:54.400Z,2.63
2019-05-04T17:06:19.966Z,2.95
2019-05-04T17:08:46.767Z,2.70
2019-05-04T17:11:14.350Z,2.97
2019-05-04T17:13:40.374Z,2.50
2019-05-04T17:16:12.725Z,3.50
2019-05-04T17:18:34.537Z,2.53
2019-05-04T17:21:00.930Z,3.50
2019-05-04T17:23:27.674Z,6.43
2019-05-04T17:26:00.131Z,13.33
2019-05-04T17:28:27.528Z,4.47
2019-05-04T17:30:59.551Z,7.77
2019-05-04T17:33:26.381Z,3.90
2019-05-04T17:35:54.888Z,4.37
2019-05-04T17:38:19.886Z,3.13
2019-05-04T17:40:52.601Z,3.20
2019-05-04T17:43:26.695Z,4.50
2019-05-04T17:45:54.425Z,3.17
2019-05-04T17:48:20.198Z,2.10
2019-05-04T17:50:47.048Z,2.20
2019-05-04T17:53:14.730Z,3.30
2019-05-04T17:55:40.555Z,2.80
2019-05-04T17:58:07.302Z,3.27
2019-05-04T18:00:48.759Z,3.00
2019-05-04T18:03:21.297Z,2.60
2019-05-04T18:05:48.066Z,3.03
2019-05-04T18:08:14.858Z,3.27
2019-05-04T18:10:54.564Z,2.90
2019-05-04T18:13:25.149Z,2.40
2019-05-04T18:15:57.102Z,2.37
2019-05-04T18:18:29.678Z,2.60
2019-05-04T18:20:56.489Z,3.00
2019-05-04T18:23:24.839Z,2.53
2019-05-04T18:25:49.982Z,3.00
2019-05-04T18:28:16.734Z,2.63
2019-05-04T18:30:43.470Z,3.37
2019-05-04T18:33:10.290Z,3.67
2019-05-04T18:35:37.044Z,3.50
2019-05-04T18:38:04.992Z,3.13
2019-05-04T18:40:37.093Z,3.60
2019-05-04T18:43:05.029Z,4.37
2019-05-04T18:45:51.082Z,5.07
2019-05-04T18:48:37.445Z,4.67
2019-05-04T18:51:05.061Z,3.50
2019-05-04T18:53:30.931Z,3.83
2019-05-04T18:55:57.658Z,3.80
2019-05-04T18:58:24.823Z,4.20
2019-05-04T19:00:51.193Z,4.90
2019-05-04T19:03:17.978Z,4.73
2019-05-04T19:05:48.314Z,5.30
2019-05-04T19:08:18.735Z,5.10
2019-05-04T19:10:45.478Z,7.30
2019-05-04T19:13:14.198Z,5.22
2019-05-04T19:15:38.977Z,5.03
2019-05-04T19:18:05.774Z,4.80
2019-05-04T19:20:32.532Z,5.10
2019-05-04T19:22:59.306Z,4.07
2019-05-04T19:25:26.073Z,4.20
2019-05-04T19:27:52.838Z,4.13
2019-05-04T19:30:19.676Z,5.00
2019-05-04T19:32:46.577Z,4.43
2019-05-04T19:35:14.945Z,4.77
2019-05-04T19:37:39.952Z,4.40
2019-05-04T19:40:06.740Z,4.30
2019-05-04T19:42:39.455Z,4.33
2019-05-04T19:45:14.915Z,4.43
2019-05-04T19:47:41.631Z,4.10
2019-05-04T19:50:08.380Z,4.70
2019-05-04T19:52:35.121Z,4.20
2019-05-04T19:55:01.917Z,4.70
2019-05-04T19:57:28.686Z,5.07
2019-05-04T19:59:55.486Z,4.93
2019-05-04T20:02:22.250Z,5.57
2019-05-04T20:04:49.011Z,6.40
2019-05-04T20:07:35.084Z,5.47
2019-05-04T20:10:06.842Z,5.43
2019-05-04T20:12:40.778Z,5.13
2019-05-04T20:15:19.261Z,5.43
2019-05-04T20:17:40.047Z,5.63
2019-05-04T20:20:05.510Z,5.37
2019-05-04T20:22:31.838Z,5.57
2019-05-04T20:24:58.622Z,6.20
2019-05-04T20:27:25.522Z,7.43
2019-05-04T20:29:54.343Z,6.73
2019-05-04T20:32:18.859Z,6.03
2019-05-04T20:34:45.704Z,6.90
2019-05-04T20:37:12.606Z,6.20
2019-05-04T20:39:39.382Z,7.60
2019-05-04T20:42:06.132Z,7.33
2019-05-04T20:44:40.203Z,6.13
2019-05-04T20:47:17.257Z,6.10
2019-05-04T20:49:45.679Z,6.10
2019-05-04T20:52:14.262Z,6.03
2019-05-04T20:54:39.192Z,6.63
2019-05-04T20:57:05.958Z,6.50
2019-05-04T20:59:34.516Z,5.10
2019-05-04T21:02:04.831Z,7.70
2019-05-04T21:04:42.321Z,5.50
2019-05-04T21:07:09.083Z,6.80
2019-05-04T21:09:35.829Z,5.90
2019-05-04T21:12:04.679Z,7.20
2019-05-04T21:14:29.371Z,6.67
2019-05-04T21:17:02.239Z,6.90
2019-05-04T21:19:35.786Z,5.50
2019-05-04T21:22:06.227Z,5.80
2019-05-04T21:24:34.946Z,5.70
2019-05-04T21:26:59.726Z,5.63
2019-05-04T21:29:26.476Z,5.97
2019-05-04T21:31:54.581Z,6.70
2019-05-04T21:34:20.125Z,6.23
2019-05-04T21:36:46.902Z,5.60
2019-05-04T21:39:15.287Z,5.33
2019-05-04T21:41:40.435Z,5.27
2019-05-04T21:44:09.146Z,4.70
2019-05-04T21:46:41.797Z,5.70
2019-05-04T21:49:28.916Z,5.07
2019-05-04T21:51:55.693Z,6.40
2019-05-04T21:54:22.630Z,5.47
2019-05-04T21:56:49.389Z,5.90
2019-05-04T21:59:16.226Z,4.60
2019-05-04T22:01:54.978Z,4.70
2019-05-04T22:04:25.680Z,3.80
2019-05-04T22:06:52.442Z,3.67
2019-05-04T22:09:19.192Z,3.73
2019-05-04T22:11:45.982Z,3.40
2019-05-04T22:14:14.249Z,3.30
2019-05-04T22:16:39.970Z,3.80
2019-05-04T22:19:06.786Z,3.40
2019-05-04T22:21:34.662Z,3.10
2019-05-04T22:24:00.306Z,2.93
2019-05-04T22:26:27.097Z,3.20
2019-05-04T22:28:54.942Z,3.00
2019-05-04T22:31:20.659Z,2.90
2019-05-04T22:33:47.439Z,2.50
2019-05-04T22:36:27.423Z,3.13
2019-05-04T22:38:54.608Z,2.63
2019-05-04T22:41:20.957Z,3.17
2019-05-04T22:43:47.748Z,2.70
2019-05-04T22:46:14.928Z,3.33
2019-05-04T22:48:46.470Z,3.27
2019-05-04T22:51:08.098Z,4.27
2019-05-04T22:53:38.182Z,4.67
2019-05-04T22:56:07.722Z,4.00
2019-05-04T22:58:39.818Z,3.80
2019-05-04T23:01:14.496Z,3.83
2019-05-04T23:03:44.790Z,4.47
2019-05-04T23:06:11.542Z,5.10
2019-05-04T23:08:38.336Z,5.83
2019-05-04T23:11:05.195Z,5.30
2019-05-04T23:13:31.962Z,3.40
2019-05-04T23:15:58.758Z,2.50
2019-05-04T23:18:25.519Z,2.33
2019-05-04T23:20:52.282Z,2.90
2019-05-04T23:23:19.185Z,2.90
2019-05-04T23:25:45.947Z,2.27
2019-05-04T23:28:14.546Z,2.83
2019-05-04T23:30:39.487Z,2.50
2019-05-04T23:33:06.250Z,2.80
2019-05-04T23:35:33.012Z,2.60
2019-05-04T23:37:59.787Z,2.97
2019-05-04T23:40:26.554Z,3.37
2019-05-04T23:42:54.678Z,3.23
2019-05-04T23:45:20.079Z,3.40
2019-05-04T23:47:50.346Z,3.17
2019-05-04T23:50:17.120Z,2.90
2019-05-04T23:52:44.732Z,3.27
2019-05-04T23:55:10.694Z,2.93
2019-05-04T23:57:37.471Z,3.27
